Time;durP1;ratioP1;P1;durP2;ratioP2;P2;SDS_P1;SDS_P2;PMS_P1;PMS_P2;Temp;Humidity;BMP_temperature;BMP_pressure;BME280_temperature;BME280_humidity;BME280_pressure;Samples;Min_cycle;Max_cycle;Signal;HPM_P1;HPM_P2
2023/04/20 00:01:12;;;;;;;2.93;2.70;;;;;;;;;;5064204;28;20210;-83
2023/04/20 00:03:38;;;;;;;2.60;2.30;;;;;;;;;;5037903;28;20213;-83
2023/04/20 00:06:06;;;;;;;5.50;2.50;;;;;;;;;;5037727;28;20210;-83
2023/04/20 00:08:35;;;;;;;2.37;2.17;;;;;;;;;;5064267;28;20266;-84
2023/04/20 00:11:01;;;;;;;2.87;2.67;;;;;;;;;;5050833;28;20205;-83
2023/04/20 00:13:28;;;;;;;2.30;2.13;;;;;;;;;;5050537;28;20198;-83
2023/04/20 00:15:55;;;;;;;2.93;2.60;;;;;;;;;;5058315;28;20233;-83
2023/04/20 00:18:21;;;;;;;2.30;2.10;;;;;;;;;;5057477;28;20213;-84
2023/04/20 00:20:48;;;;;;;2.03;1.90;;;;;;;;;;5071068;28;20209;-84
2023/04/20 00:23:15;;;;;;;2.13;1.93;;;;;;;;;;5070695;28;20206;-83
2023/04/20 00:25:43;;;;;;;2.90;1.73;;;;;;;;;;5072655;28;20229;-83
2023/04/20 00:28:10;;;;;;;1.80;1.70;;;;;;;;;;5073986;28;20201;-82
2023/04/20 00:30:37;;;;;;;2.00;1.80;;;;;;;;;;5065781;28;20573;-84
2023/04/20 00:33:03;;;;;;;2.77;1.93;;;;;;;;;;5068006;28;20201;-83
2023/04/20 00:35:30;;;;;;;1.67;1.57;;;;;;;;;;5063600;28;20235;-83
2023/04/20 00:37:57;;;;;;;1.90;1.80;;;;;;;;;;5071932;28;20205;-83
2023/04/20 00:40:24;;;;;;;1.80;1.70;;;;;;;;;;5054016;28;20701;-83
2023/04/20 00:42:52;;;;;;;1.90;1.80;;;;;;;;;;5070334;28;20252;-83
2023/04/20 00:45:21;;;;;;;1.73;1.63;;;;;;;;;;5073796;28;20220;-83
2023/04/20 00:47:47;;;;;;;2.30;2.10;;;;;;;;;;5061073;28;20672;-84
2023/04/20 00:50:15;;;;;;;2.80;2.30;;;;;;;;;;5064783;28;20272;-83
2023/04/20 00:52:41;;;;;;;2.00;1.90;;;;;;;;;;5043510;28;20613;-83
2023/04/20 00:55:09;;;;;;;3.80;2.50;;;;;;;;;;5073895;28;20358;-83
2023/04/20 00:57:36;;;;;;;2.80;2.60;;;;;;;;;;5073583;28;20593;-84
2023/04/20 01:00:06;;;;;;;2.97;1.90;;;;;;;;;;5073647;28;20204;-83
2023/04/20 01:02:33;;;;;;;2.13;1.93;;;;;;;;;;5060402;28;20240;-83
2023/04/20 01:05:00;;;;;;;2.10;1.90;;;;;;;;;;5062703;28;20259;-83
2023/04/20 01:07:28;;;;;;;4.43;2.60;;;;;;;;;;5072038;28;20205;-83
2023/04/20 01:09:55;;;;;;;2.20;2.03;;;;;;;;;;5073612;28;20216;-82
2023/04/20 01:12:22;;;;;;;2.67;2.43;;;;;;;;;;5060160;28;20208;-84
2023/04/20 01:14:49;;;;;;;3.20;2.73;;;;;;;;;;5061898;28;20639;-83
2023/04/20 01:17:17;;;;;;;3.10;2.80;;;;;;;;;;5053654;28;20740;-83
2023/04/20 01:19:44;;;;;;;4.47;2.70;;;;;;;;;;5053432;28;20297;-83
2023/04/20 01:22:16;;;;;;;5.90;2.40;;;;;;;;;;5059219;28;20698;-83
2023/04/20 01:24:42;;;;;;;2.60;2.00;;;;;;;;;;5073373;28;20580;-85
2023/04/20 01:27:10;;;;;;;2.83;2.57;;;;;;;;;;5073345;28;20212;-82
2023/04/20 01:29:37;;;;;;;2.60;2.40;;;;;;;;;;5059862;28;20264;-83
2023/04/20 01:32:04;;;;;;;3.60;2.30;;;;;;;;;;5053147;28;20641;-83
2023/04/20 01:34:31;;;;;;;2.30;2.10;;;;;;;;;;5053006;28;20739;-84
2023/04/20 01:36:58;;;;;;;2.27;2.17;;;;;;;;;;5065672;28;20613;-83
2023/04/20 01:39:26;;;;;;;2.70;2.50;;;;;;;;;;5067095;28;20205;-83
2023/04/20 01:41:53;;;;;;;2.70;2.50;;;;;;;;;;5073532;28;20209;-84
2023/04/20 01:44:19;;;;;;;5.10;4.70;;;;;;;;;;5059563;28;20588;-84
2023/04/20 01:46:46;;;;;;;3.40;3.10;;;;;;;;;;5072974;28;20216;-83
2023/04/20 01:49:13;;;;;;;4.10;3.73;;;;;;;;;;5058409;28;20198;-83
2023/04/20 01:51:40;;;;;;;3.33;3.03;;;;;;;;;;5052969;28;20209;-83
2023/04/20 01:54:06;;;;;;;3.37;3.03;;;;;;;;;;5067931;28;20326;-83
2023/04/20 01:56:35;;;;;;;6.03;3.60;;;;;;;;;;5063989;28;20238;-83
2023/04/20 01:59:01;;;;;;;3.67;3.33;;;;;;;;;;5068209;28;20263;-83
2023/04/20 02:01:28;;;;;;;3.20;2.90;;;;;;;;;;5072643;28;20747;-83
2023/04/20 02:03:55;;;;;;;3.60;2.80;;;;;;;;;;5072531;28;20649;-84
2023/04/20 02:06:22;;;;;;;3.40;3.07;;;;;;;;;;5072779;28;20596;-84
2023/04/20 02:08:48;;;;;;;3.23;2.93;;;;;;;;;;5059383;28;20213;-83
2023/04/20 02:11:15;;;;;;;3.27;2.97;;;;;;;;;;5072792;28;20274;-83
2023/04/20 02:13:43;;;;;;;3.23;2.93;;;;;;;;;;5069557;28;20206;-83
2023/04/20 02:16:10;;;;;;;2.90;2.70;;;;;;;;;;5062241;28;20236;-83
2023/04/20 02:18:37;;;;;;;3.37;3.07;;;;;;;;;;5068216;28;20214;-83
2023/04/20 02:21:04;;;;;;;3.40;2.80;;;;;;;;;;5052424;28;20660;-83
2023/04/20 02:23:31;;;;;;;3.53;2.77;;;;;;;;;;5052111;28;20210;-83
2023/04/20 02:25:58;;;;;;;3.60;3.30;;;;;;;;;;5062829;28;20216;-83
2023/04/20 02:28:25;;;;;;;3.53;3.10;;;;;;;;;;5055028;28;20212;-83
2023/04/20 02:30:53;;;;;;;3.00;2.80;;;;;;;;;;5063090;28;20209;-84
2023/04/20 02:33:21;;;;;;;3.80;3.33;;;;;;;;;;5058526;28;20205;-82
2023/04/20 02:35:48;;;;;;;3.47;3.17;;;;;;;;;;5060500;28;20727;-83
2023/04/20 02:38:15;;;;;;;3.07;2.77;;;;;;;;;;5065043;28;20237;-83
2023/04/20 02:40:42;;;;;;;2.53;2.33;;;;;;;;;;5063795;28;20246;-84
2023/04/20 02:43:08;;;;;;;3.70;3.33;;;;;;;;;;5063585;28;20755;-83
2023/04/20 02:45:35;;;;;;;2.90;2.70;;;;;;;;;;5065268;28;20200;-83
2023/04/20 02:48:04;;;;;;;3.27;2.97;;;;;;;;;;5060657;28;20215;-83
2023/04/20 02:50:31;;;;;;;2.90;2.70;;;;;;;;;;5056433;28;20202;-83
2023/04/20 02:52:58;;;;;;;3.00;2.80;;;;;;;;;;5055219;28;20243;-84
2023/04/20 02:55:26;;;;;;;3.30;3.00;;;;;;;;;;5053918;28;20227;-84
2023/04/20 02:57:52;;;;;;;3.47;3.17;;;;;;;;;;5051198;28;20214;-85
2023/04/20 03:00:20;;;;;;;5.27;3.07;;;;;;;;;;5052214;28;20645;-83
2023/04/20 03:02:46;;;;;;;4.40;3.83;;;;;;;;;;5064921;28;20210;-83
2023/04/20 03:05:15;;;;;;;4.50;2.87;;;;;;;;;;5064922;28;20228;-84
2023/04/20 03:07:41;;;;;;;3.77;2.70;;;;;;;;;;5071004;28;20691;-83
2023/04/20 03:10:10;;;;;;;3.97;3.27;;;;;;;;;;5058022;28;20206;-85
2023/04/20 03:12:36;;;;;;;4.33;3.90;;;;;;;;;;5063914;28;20233;-84
2023/04/20 03:15:07;;;;;;;3.97;3.67;;;;;;;;;;5056226;28;20201;-83
2023/04/20 03:17:34;;;;;;;4.57;4.17;;;;;;;;;;5030843;28;20648;-84
2023/04/20 03:20:01;;;;;;;6.03;4.53;;;;;;;;;;5059851;28;20270;-83
2023/04/20 03:22:30;;;;;;;4.57;4.17;;;;;;;;;;5060627;28;20284;-83
2023/04/20 03:24:56;;;;;;;4.63;3.83;;;;;;;;;;5068527;28;20291;-84
2023/04/20 03:27:23;;;;;;;4.40;4.00;;;;;;;;;;5060861;28;20222;-84
2023/04/20 03:29:51;;;;;;;6.77;5.50;;;;;;;;;;5067300;28;20202;-83
2023/04/20 03:32:18;;;;;;;5.87;4.17;;;;;;;;;;5051428;28;20201;-83
2023/04/20 03:34:45;;;;;;;5.87;4.30;;;;;;;;;;5061341;28;20201;-79
2023/04/20 03:37:12;;;;;;;6.47;4.07;;;;;;;;;;5053503;28;20233;-80
2023/04/20 03:39:40;;;;;;;4.60;4.20;;;;;;;;;;5062176;28;20205;-81
2023/04/20 03:42:07;;;;;;;4.97;4.37;;;;;;;;;;5057470;28;20267;-81
2023/04/20 03:44:34;;;;;;;5.43;4.40;;;;;;;;;;5059753;28;20202;-81
2023/04/20 03:47:00;;;;;;;5.93;5.00;;;;;;;;;;5051025;28;20202;-81
2023/04/20 03:49:29;;;;;;;6.37;5.07;;;;;;;;;;5059189;28;20267;-82
2023/04/20 03:51:56;;;;;;;6.17;5.17;;;;;;;;;;5061638;28;20205;-81
2023/04/20 03:54:23;;;;;;;4.83;4.43;;;;;;;;;;5057942;28;20209;-83
2023/04/20 03:56:51;;;;;;;4.67;4.27;;;;;;;;;;5070590;28;20224;-81
2023/04/20 03:59:17;;;;;;;3.60;3.40;;;;;;;;;;5070671;28;20205;-81
2023/04/20 04:01:44;;;;;;;6.23;5.20;;;;;;;;;;5063538;28;20224;-81
2023/04/20 04:04:11;;;;;;;4.83;4.43;;;;;;;;;;5068123;28;20688;-81
2023/04/20 04:06:38;;;;;;;7.30;5.57;;;;;;;;;;5063117;28;20209;-81
2023/04/20 04:09:05;;;;;;;5.30;4.80;;;;;;;;;;5064898;28;20205;-81
2023/04/20 04:11:32;;;;;;;5.33;4.83;;;;;;;;;;5056425;28;20209;-81
2023/04/20 04:14:00;;;;;;;7.83;5.40;;;;;;;;;;5069247;28;20726;-81
2023/04/20 04:16:26;;;;;;;5.37;4.87;;;;;;;;;;5057515;28;20232;-82
2023/04/20 04:18:53;;;;;;;5.23;4.73;;;;;;;;;;5071383;28;20220;-83
2023/04/20 04:21:20;;;;;;;5.63;5.13;;;;;;;;;;5054572;28;20201;-81
2023/04/20 04:23:47;;;;;;;7.13;6.43;;;;;;;;;;5070339;28;20208;-81
2023/04/20 04:26:13;;;;;;;6.90;5.93;;;;;;;;;;5074634;28;20209;-80
2023/04/20 04:28:40;;;;;;;6.47;5.87;;;;;;;;;;5061141;28;20212;-81
2023/04/20 04:31:09;;;;;;;8.57;7.50;;;;;;;;;;5074204;28;20290;-82
2023/04/20 04:33:35;;;;;;;7.87;7.07;;;;;;;;;;5067749;28;20194;-82
2023/04/20 04:36:02;;;;;;;8.23;7.40;;;;;;;;;;5066956;28;20225;-82
2023/04/20 04:38:30;;;;;;;8.50;7.60;;;;;;;;;;5060414;28;20281;-82
2023/04/20 04:40:57;;;;;;;7.33;6.53;;;;;;;;;;5061183;28;20224;-81
2023/04/20 04:43:24;;;;;;;6.73;5.17;;;;;;;;;;5067463;28;20210;-81
2023/04/20 04:45:52;;;;;;;6.33;5.60;;;;;;;;;;5066813;28;20205;-82
2023/04/20 04:48:20;;;;;;;6.13;5.47;;;;;;;;;;5040706;28;20212;-82
2023/04/20 04:50:47;;;;;;;5.93;5.43;;;;;;;;;;5067924;28;20201;-82
2023/04/20 04:53:13;;;;;;;5.10;4.70;;;;;;;;;;5072808;28;20213;-82
2023/04/20 04:55:40;;;;;;;7.10;5.57;;;;;;;;;;5059935;28;20209;-82
2023/04/20 04:58:07;;;;;;;5.60;5.17;;;;;;;;;;5073661;28;20205;-83
2023/04/20 05:00:34;;;;;;;6.27;5.77;;;;;;;;;;5057092;28;20601;-82
2023/04/20 05:03:00;;;;;;;5.17;4.73;;;;;;;;;;5049919;28;20205;-82
2023/04/20 05:05:29;;;;;;;5.03;4.63;;;;;;;;;;5060618;28;20252;-82
2023/04/20 05:07:56;;;;;;;4.67;4.30;;;;;;;;;;5073602;28;20262;-83
2023/04/20 05:10:22;;;;;;;5.43;5.03;;;;;;;;;;5070955;28;20679;-82
2023/04/20 05:12:51;;;;;;;5.40;4.73;;;;;;;;;;5061643;28;20688;-82
2023/04/20 05:15:17;;;;;;;6.17;5.33;;;;;;;;;;5056975;28;20209;-82
2023/04/20 05:17:44;;;;;;;22.10;17.03;;;;;;;;;;5063386;28;20251;-82
2023/04/20 05:20:12;;;;;;;113.53;69.03;;;;;;;;;;5072774;28;20193;-81
2023/04/20 05:22:41;;;;;;;85.03;61.03;;;;;;;;;;5073209;28;20304;-81
2023/04/20 05:25:08;;;;;;;74.80;51.33;;;;;;;;;;5055885;28;20221;-82
2023/04/20 05:27:36;;;;;;;50.27;36.43;;;;;;;;;;5063870;28;20307;-81
2023/04/20 05:30:03;;;;;;;28.70;24.47;;;;;;;;;;5069105;28;20696;-81
2023/04/20 05:32:30;;;;;;;19.97;16.67;;;;;;;;;;5064325;28;20270;-81
2023/04/20 05:34:57;;;;;;;15.60;14.10;;;;;;;;;;5060194;28;20292;-82
2023/04/20 05:37:23;;;;;;;8.67;6.70;;;;;;;;;;5062368;28;20237;-80
2023/04/20 05:39:51;;;;;;;6.83;5.40;;;;;;;;;;5057819;28;20281;-81
2023/04/20 05:42:18;;;;;;;6.07;5.47;;;;;;;;;;5073035;28;20262;-82
2023/04/20 05:44:45;;;;;;;6.17;5.47;;;;;;;;;;5072939;28;20197;-81
2023/04/20 05:47:12;;;;;;;5.60;5.10;;;;;;;;;;5061250;28;20241;-82
2023/04/20 05:49:39;;;;;;;5.50;5.00;;;;;;;;;;5066392;28;20806;-81
2023/04/20 05:52:06;;;;;;;7.43;6.37;;;;;;;;;;5065251;28;20205;-81
2023/04/20 05:54:33;;;;;;;6.40;5.87;;;;;;;;;;5059341;28;20204;-81
2023/04/20 05:57:01;;;;;;;6.60;6.10;;;;;;;;;;5060616;28;20656;-82
2023/04/20 05:59:28;;;;;;;6.73;6.10;;;;;;;;;;5071774;28;20578;-81
2023/04/20 06:01:55;;;;;;;4.93;4.40;;;;;;;;;;5060375;28;20209;-81
2023/04/20 06:04:22;;;;;;;5.40;4.67;;;;;;;;;;5072082;28;20205;-82
2023/04/20 06:06:48;;;;;;;6.07;4.70;;;;;;;;;;5059736;28;20236;-81
2023/04/20 06:09:15;;;;;;;6.93;5.67;;;;;;;;;;5072005;28;20633;-81
2023/04/20 06:11:42;;;;;;;9.60;7.53;;;;;;;;;;5059492;28;20210;-82
2023/04/20 06:14:12;;;;;;;6.70;6.10;;;;;;;;;;5071553;28;20212;-81
2023/04/20 06:16:39;;;;;;;5.97;5.40;;;;;;;;;;5071851;28;20315;-82
2023/04/20 06:19:06;;;;;;;6.13;4.77;;;;;;;;;;5045929;28;20209;-81
2023/04/20 06:21:33;;;;;;;6.07;5.57;;;;;;;;;;5058817;28;20212;-82
2023/04/20 06:24:00;;;;;;;5.83;4.63;;;;;;;;;;5064548;28;20689;-82
2023/04/20 06:26:27;;;;;;;5.63;5.13;;;;;;;;;;5066138;28;20208;-89
2023/04/20 06:28:53;;;;;;;5.33;4.83;;;;;;;;;;5064533;28;20211;-82
2023/04/20 06:31:21;;;;;;;5.53;4.93;;;;;;;;;;5066036;28;20212;-82
2023/04/20 06:33:48;;;;;;;6.30;4.80;;;;;;;;;;5071715;28;20586;-82
2023/04/20 06:36:15;;;;;;;4.40;4.00;;;;;;;;;;5057898;28;20684;-82
2023/04/20 06:38:42;;;;;;;6.03;5.47;;;;;;;;;;5071783;28;20262;-82
2023/04/20 06:41:09;;;;;;;5.07;4.67;;;;;;;;;;5058307;28;20206;-82
2023/04/20 06:43:35;;;;;;;4.23;3.93;;;;;;;;;;5071978;28;20201;-82
2023/04/20 06:46:02;;;;;;;8.10;5.40;;;;;;;;;;5071546;28;20209;-82
2023/04/20 06:48:30;;;;;;;5.90;5.27;;;;;;;;;;5063337;28;20201;-83
2023/04/20 06:50:57;;;;;;;5.13;4.67;;;;;;;;;;5065510;28;20212;-82
2023/04/20 06:53:24;;;;;;;9.10;5.10;;;;;;;;;;5060740;28;20205;-82
2023/04/20 06:55:51;;;;;;;5.43;4.97;;;;;;;;;;5057910;28;20213;-81
2023/04/20 06:58:17;;;;;;;4.57;4.17;;;;;;;;;;5062139;28;20238;-82
2023/04/20 07:00:44;;;;;;;5.03;4.53;;;;;;;;;;5064776;28;20209;-82
2023/04/20 07:03:11;;;;;;;5.67;4.90;;;;;;;;;;5061239;28;20292;-82
2023/04/20 07:05:41;;;;;;;5.43;4.83;;;;;;;;;;5068242;28;20208;-83
2023/04/20 07:08:08;;;;;;;5.27;4.53;;;;;;;;;;5062926;28;20283;-82
2023/04/20 07:10:35;;;;;;;5.70;5.20;;;;;;;;;;5071805;28;20203;-83
2023/04/20 07:13:02;;;;;;;5.57;5.07;;;;;;;;;;5071582;28;20262;-82
2023/04/20 07:15:28;;;;;;;5.50;5.00;;;;;;;;;;5067055;28;20274;-82
2023/04/20 07:17:55;;;;;;;5.47;4.97;;;;;;;;;;5062402;28;20282;-83
2023/04/20 07:20:22;;;;;;;5.53;4.67;;;;;;;;;;5057492;28;20211;-83
2023/04/20 07:22:50;;;;;;;5.17;4.67;;;;;;;;;;5071169;28;20205;-82
2023/04/20 07:25:17;;;;;;;4.67;4.27;;;;;;;;;;5052768;28;20287;-82
2023/04/20 07:27:44;;;;;;;4.80;4.40;;;;;;;;;;5039381;28;20213;-83
2023/04/20 07:30:11;;;;;;;5.93;4.57;;;;;;;;;;5063132;28;20206;-83
2023/04/20 07:32:39;;;;;;;4.50;4.20;;;;;;;;;;5063019;28;20680;-83
2023/04/20 07:35:07;;;;;;;5.37;4.87;;;;;;;;;;5070222;28;20205;-83
2023/04/20 07:37:34;;;;;;;4.70;4.17;;;;;;;;;;5070776;28;20282;-83
2023/04/20 07:40:04;;;;;;;3.60;3.37;;;;;;;;;;5051716;28;20675;-92
2023/04/20 07:42:32;;;;;;;5.77;4.67;;;;;;;;;;5051208;28;20206;-86
2023/04/20 07:44:59;;;;;;;5.27;4.77;;;;;;;;;;5045720;28;20201;-83
2023/04/20 07:47:25;;;;;;;5.07;4.57;;;;;;;;;;5057786;28;20213;-83
2023/04/20 07:49:52;;;;;;;4.93;4.50;;;;;;;;;;5063985;28;20210;-82
2023/04/20 07:52:19;;;;;;;8.40;4.60;;;;;;;;;;5064441;28;20274;-83
2023/04/20 07:54:46;;;;;;;6.53;5.03;;;;;;;;;;5044712;28;20212;-83
2023/04/20 07:57:14;;;;;;;4.90;4.50;;;;;;;;;;5057305;28;20222;-83
2023/04/20 07:59:41;;;;;;;4.63;4.23;;;;;;;;;;5044310;28;20213;-83
2023/04/20 08:02:08;;;;;;;4.77;4.37;;;;;;;;;;5070747;28;20211;-83
2023/04/20 08:04:36;;;;;;;4.50;4.10;;;;;;;;;;5058210;28;20595;-83
2023/04/20 08:07:03;;;;;;;5.17;4.67;;;;;;;;;;5056684;28;20213;-84
2023/04/20 08:09:30;;;;;;;5.57;4.97;;;;;;;;;;5059248;28;20201;-83
2023/04/20 08:11:57;;;;;;;5.37;4.93;;;;;;;;;;5068710;28;20210;-83
2023/04/20 08:14:25;;;;;;;4.20;3.80;;;;;;;;;;5051044;28;20203;-83
2023/04/20 08:16:51;;;;;;;4.90;4.47;;;;;;;;;;5039419;28;20203;-84
2023/04/20 08:19:18;;;;;;;5.50;4.50;;;;;;;;;;5061922;28;20203;-83
2023/04/20 08:21:47;;;;;;;5.07;4.50;;;;;;;;;;5063973;28;20728;-83
2023/04/20 08:24:14;;;;;;;4.57;4.20;;;;;;;;;;5060049;28;20697;-83
2023/04/20 08:26:42;;;;;;;6.67;4.80;;;;;;;;;;5057236;28;20208;-83
2023/04/20 08:29:09;;;;;;;5.40;4.27;;;;;;;;;;5060577;28;20688;-83
2023/04/20 08:31:37;;;;;;;6.33;5.73;;;;;;;;;;5067048;28;20592;-83
2023/04/20 08:34:04;;;;;;;5.53;5.03;;;;;;;;;;5070119;28;20273;-84
2023/04/20 08:36:31;;;;;;;4.17;3.77;;;;;;;;;;5057690;28;20207;-83
2023/04/20 08:39:06;;;;;;;4.70;4.30;;;;;;;;;;5070613;28;20221;-83
2023/04/20 08:41:33;;;;;;;3.70;3.40;;;;;;;;;;5065248;28;20220;-83
2023/04/20 08:43:59;;;;;;;4.73;4.20;;;;;;;;;;5050925;28;20210;-83
2023/04/20 08:46:27;;;;;;;4.00;3.70;;;;;;;;;;5070538;28;20212;-83
2023/04/20 08:48:55;;;;;;;4.53;4.23;;;;;;;;;;5061995;28;20236;-84
2023/04/20 08:51:23;;;;;;;4.93;4.53;;;;;;;;;;5072768;28;20197;-83
2023/04/20 08:53:50;;;;;;;6.43;4.50;;;;;;;;;;5061624;28;20202;-83
2023/04/20 08:56:16;;;;;;;4.87;4.37;;;;;;;;;;5073223;28;20209;-84
2023/04/20 08:58:43;;;;;;;4.50;4.10;;;;;;;;;;5073889;28;21007;-83
2023/04/20 09:01:10;;;;;;;5.00;4.00;;;;;;;;;;5060261;28;20251;-84
2023/04/20 09:03:40;;;;;;;6.23;3.93;;;;;;;;;;5073490;28;20215;-84
2023/04/20 09:06:16;;;;;;;5.00;4.37;;;;;;;;;;5047841;28;20213;-84
2023/04/20 09:08:43;;;;;;;5.50;4.53;;;;;;;;;;5059312;28;20645;-83
2023/04/20 09:11:21;;;;;;;4.33;3.93;;;;;;;;;;5061805;28;20201;-84
2023/04/20 09:13:57;;;;;;;4.53;4.13;;;;;;;;;;5060214;28;20193;-83
2023/04/20 09:16:24;;;;;;;4.83;4.43;;;;;;;;;;5073823;28;20212;-83
2023/04/20 09:18:53;;;;;;;5.60;4.97;;;;;;;;;;5068616;28;20618;-83
2023/04/20 09:21:21;;;;;;;4.87;4.47;;;;;;;;;;5065261;28;20247;-83
2023/04/20 09:23:56;;;;;;;5.00;4.60;;;;;;;;;;5073360;28;20218;-83
2023/04/20 09:26:23;;;;;;;8.97;4.80;;;;;;;;;;5060516;28;20200;-83
2023/04/20 09:28:49;;;;;;;4.97;4.47;;;;;;;;;;5073054;28;20201;-84
2023/04/20 09:31:20;;;;;;;4.43;4.00;;;;;;;;;;5073682;28;20204;-83
2023/04/20 09:33:56;;;;;;;5.43;4.93;;;;;;;;;;5053496;28;20209;-83
2023/04/20 09:36:24;;;;;;;4.90;4.40;;;;;;;;;;5068043;28;20276;-83
2023/04/20 09:39:03;;;;;;;5.27;4.77;;;;;;;;;;5073010;28;20320;-83
2023/04/20 09:41:29;;;;;;;5.70;4.00;;;;;;;;;;5069583;28;20626;-84
2023/04/20 09:43:57;;;;;;;4.57;4.23;;;;;;;;;;5063722;28;20262;-83
2023/04/20 09:46:24;;;;;;;5.33;4.83;;;;;;;;;;5056127;28;20196;-83
2023/04/20 09:48:51;;;;;;;6.00;5.40;;;;;;;;;;5064265;28;20281;-83
2023/04/20 09:51:18;;;;;;;4.10;3.80;;;;;;;;;;5054577;28;20205;-83
2023/04/20 09:53:46;;;;;;;3.97;3.67;;;;;;;;;;5065399;28;20205;-83
2023/04/20 09:56:14;;;;;;;10.90;8.30;;;;;;;;;;5053635;28;20630;-83
2023/04/20 09:58:41;;;;;;;4.80;4.23;;;;;;;;;;5064681;28;20228;-83
2023/04/20 10:01:09;;;;;;;5.10;4.60;;;;;;;;;;5067221;28;20201;-90
2023/04/20 10:03:36;;;;;;;4.80;4.10;;;;;;;;;;5065670;28;20212;-83
2023/04/20 10:06:03;;;;;;;12.10;8.40;;;;;;;;;;5053291;28;20205;-83
2023/04/20 10:08:40;;;;;;;11.77;8.33;;;;;;;;;;5065757;28;20259;-83
2023/04/20 10:11:08;;;;;;;9.07;5.50;;;;;;;;;;5064824;28;20229;-83
2023/04/20 10:13:37;;;;;;;4.50;4.10;;;;;;;;;;5066972;28;20200;-83
2023/04/20 10:16:04;;;;;;;6.80;4.97;;;;;;;;;;5064584;28;20205;-83
2023/04/20 10:18:31;;;;;;;4.63;4.10;;;;;;;;;;5066950;28;20237;-83
2023/04/20 10:21:06;;;;;;;4.23;3.93;;;;;;;;;;5072492;28;20270;-83
2023/04/20 10:23:32;;;;;;;4.87;4.40;;;;;;;;;;5072185;28;20210;-83
2023/04/20 10:26:00;;;;;;;3.90;3.60;;;;;;;;;;5062410;28;20210;-83
2023/04/20 10:28:39;;;;;;;4.20;3.90;;;;;;;;;;5055370;28;20211;-83
2023/04/20 10:31:11;;;;;;;5.07;4.67;;;;;;;;;;5060342;28;20245;-83
2023/04/20 10:33:52;;;;;;;4.70;4.30;;;;;;;;;;5052526;28;20202;-83
2023/04/20 10:36:29;;;;;;;4.00;3.70;;;;;;;;;;5066970;28;20211;-83
2023/04/20 10:38:56;;;;;;;5.87;4.33;;;;;;;;;;5072041;28;20230;-83
2023/04/20 10:41:23;;;;;;;7.23;5.60;;;;;;;;;;5071603;28;20211;-83
2023/04/20 10:43:51;;;;;;;5.70;5.20;;;;;;;;;;5061381;28;20365;-83
2023/04/20 10:46:20;;;;;;;4.47;4.07;;;;;;;;;;5069075;28;20639;-83
2023/04/20 10:48:54;;;;;;;4.87;4.47;;;;;;;;;;5071736;28;20287;-84
2023/04/20 10:51:21;;;;;;;5.37;4.10;;;;;;;;;;5066439;28;20208;-83
2023/04/20 10:54:03;;;;;;;4.23;3.87;;;;;;;;;;5064124;28;20634;-83
2023/04/20 10:56:37;;;;;;;6.90;3.67;;;;;;;;;;5071429;28;20591;-83
2023/04/20 10:59:08;;;;;;;4.20;3.80;;;;;;;;;;5057697;28;20233;-83
2023/04/20 11:01:35;;;;;;;4.83;4.20;;;;;;;;;;5072183;28;20293;-82
2023/04/20 11:04:03;;;;;;;4.23;3.93;;;;;;;;;;5071458;28;20233;-83
2023/04/20 11:06:30;;;;;;;4.63;4.23;;;;;;;;;;5061316;28;20206;-83
2023/04/20 11:08:57;;;;;;;5.57;3.90;;;;;;;;;;5068259;28;20250;-83
2023/04/20 11:11:26;;;;;;;4.43;3.90;;;;;;;;;;5070505;28;20197;-84
2023/04/20 11:13:53;;;;;;;5.23;4.20;;;;;;;;;;5071116;28;20251;-84
2023/04/20 11:16:21;;;;;;;9.47;4.20;;;;;;;;;;5060248;28;20216;-83
2023/04/20 11:18:52;;;;;;;15.17;10.87;;;;;;;;;;5064340;28;20232;-82
2023/04/20 11:21:19;;;;;;;11.33;10.23;;;;;;;;;;5063482;28;20612;-83
2023/04/20 11:23:49;;;;;;;8.03;7.33;;;;;;;;;;5057406;28;20216;-83
2023/04/20 11:26:16;;;;;;;6.67;6.03;;;;;;;;;;5071099;28;20209;-83
2023/04/20 11:28:53;;;;;;;12.40;9.97;;;;;;;;;;5070964;28;20660;-84
2023/04/20 11:31:21;;;;;;;11.30;9.70;;;;;;;;;;5070642;28;20209;-83
2023/04/20 11:33:48;;;;;;;8.83;7.93;;;;;;;;;;5063337;28;20260;-83
2023/04/20 11:36:22;;;;;;;8.30;7.53;;;;;;;;;;5064366;28;20676;-83
2023/04/20 11:38:49;;;;;;;8.53;7.67;;;;;;;;;;5050851;28;20226;-82
2023/04/20 11:41:17;;;;;;;11.30;9.27;;;;;;;;;;5064410;28;20300;-83
2023/04/20 11:43:44;;;;;;;14.67;12.30;;;;;;;;;;5060843;28;20240;-84
2023/04/20 11:46:15;;;;;;;16.30;11.90;;;;;;;;;;5070328;28;20217;-83
2023/04/20 11:48:43;;;;;;;13.17;11.50;;;;;;;;;;5071583;28;20197;-82
2023/04/20 11:51:10;;;;;;;13.10;10.87;;;;;;;;;;5057621;28;20212;-82
2023/04/20 11:53:37;;;;;;;16.10;12.30;;;;;;;;;;5070808;28;20213;-83
2023/04/20 11:56:05;;;;;;;25.47;17.80;;;;;;;;;;5070904;28;20694;-83
2023/04/20 11:58:31;;;;;;;10.10;8.90;;;;;;;;;;5070881;28;20224;-82
2023/04/20 12:00:58;;;;;;;7.03;6.33;;;;;;;;;;5065939;28;20658;-83
2023/04/20 12:03:25;;;;;;;5.90;5.40;;;;;;;;;;5050980;28;20213;-83
2023/04/20 12:05:53;;;;;;;6.07;5.47;;;;;;;;;;5056093;28;20205;-82
2023/04/20 12:08:22;;;;;;;6.07;5.57;;;;;;;;;;5070757;28;20210;-83
2023/04/20 12:10:49;;;;;;;7.70;4.70;;;;;;;;;;5057484;28;20207;-83
2023/04/20 12:13:16;;;;;;;5.50;5.00;;;;;;;;;;5058084;28;20205;-84
2023/04/20 12:15:43;;;;;;;5.17;4.67;;;;;;;;;;5063799;28;20757;-82
2023/04/20 12:18:09;;;;;;;5.03;4.63;;;;;;;;;;5064143;28;20215;-83
2023/04/20 12:20:36;;;;;;;4.87;4.40;;;;;;;;;;5071421;28;20629;-82
2023/04/20 12:23:05;;;;;;;4.87;4.47;;;;;;;;;;5074473;28;20269;-82
2023/04/20 12:25:31;;;;;;;4.50;4.10;;;;;;;;;;5067301;28;20245;-82
2023/04/20 12:27:58;;;;;;;4.57;4.10;;;;;;;;;;5068017;28;20219;-83
2023/04/20 12:30:25;;;;;;;4.57;4.17;;;;;;;;;;5067502;28;20265;-82
2023/04/20 12:32:52;;;;;;;4.10;3.73;;;;;;;;;;5055290;28;20202;-83
2023/04/20 12:35:19;;;;;;;6.33;4.50;;;;;;;;;;5066738;28;20213;-83
2023/04/20 12:37:46;;;;;;;4.73;4.33;;;;;;;;;;5067718;28;20200;-84
2023/04/20 12:40:15;;;;;;;6.70;5.43;;;;;;;;;;5062243;28;20225;-82
2023/04/20 12:42:42;;;;;;;14.57;10.03;;;;;;;;;;5060556;28;20200;-83
2023/04/20 12:45:10;;;;;;;7.50;6.60;;;;;;;;;;5074142;28;20291;-84
2023/04/20 12:47:36;;;;;;;9.87;8.80;;;;;;;;;;5060812;28;20208;-83
2023/04/20 12:50:06;;;;;;;7.83;6.50;;;;;;;;;;5065605;28;20279;-83
2023/04/20 12:52:33;;;;;;;9.27;7.73;;;;;;;;;;5055874;28;20272;-83
2023/04/20 12:55:00;;;;;;;10.37;8.90;;;;;;;;;;5065314;28;20212;-83
2023/04/20 12:57:28;;;;;;;11.40;10.27;;;;;;;;;;5051309;28;20230;-82
2023/04/20 12:59:56;;;;;;;8.30;7.50;;;;;;;;;;5051929;28;20792;-83
2023/04/20 13:02:23;;;;;;;8.77;7.87;;;;;;;;;;5060456;28;20591;-83
2023/04/20 13:04:50;;;;;;;8.27;7.47;;;;;;;;;;5064251;28;20202;-83
2023/04/20 13:07:17;;;;;;;9.33;6.53;;;;;;;;;;5069346;28;20706;-92
2023/04/20 13:09:44;;;;;;;9.87;8.03;;;;;;;;;;5064616;28;20214;-83
2023/04/20 13:12:11;;;;;;;8.90;6.20;;;;;;;;;;5069733;28;20197;-83
2023/04/20 13:14:39;;;;;;;10.93;9.93;;;;;;;;;;5073451;28;20202;-83
2023/04/20 13:17:06;;;;;;;7.80;7.10;;;;;;;;;;5073343;28;20216;-83
2023/04/20 13:19:33;;;;;;;7.70;6.90;;;;;;;;;;5063340;28;20237;-83
2023/04/20 13:22:00;;;;;;;9.47;4.83;;;;;;;;;;5050050;28;20255;-83
2023/04/20 13:24:26;;;;;;;9.17;6.83;;;;;;;;;;5043812;28;20227;-83
2023/04/20 13:26:55;;;;;;;6.53;5.83;;;;;;;;;;5040101;28;20258;-83
2023/04/20 13:29:22;;;;;;;4.93;4.43;;;;;;;;;;5064217;28;20706;-84
2023/04/20 13:31:50;;;;;;;16.40;10.43;;;;;;;;;;5054723;28;20216;-89
2023/04/20 13:34:17;;;;;;;11.87;10.57;;;;;;;;;;5052478;28;20286;-83
2023/04/20 13:36:44;;;;;;;10.93;9.83;;;;;;;;;;5066166;28;20634;-83
2023/04/20 13:39:11;;;;;;;9.30;8.47;;;;;;;;;;5064344;28;20230;-83
2023/04/20 13:41:38;;;;;;;7.03;6.43;;;;;;;;;;5059452;28;20337;-82
2023/04/20 13:44:06;;;;;;;8.07;6.90;;;;;;;;;;5072917;28;20623;-83
2023/04/20 13:46:34;;;;;;;13.87;12.27;;;;;;;;;;5054533;28;20263;-83
2023/04/20 13:49:03;;;;;;;11.83;7.93;;;;;;;;;;5065103;28;20293;-83
2023/04/20 13:51:29;;;;;;;36.37;24.67;;;;;;;;;;5066293;28;20221;-83
2023/04/20 13:53:56;;;;;;;19.90;17.83;;;;;;;;;;5066230;28;20207;-83
2023/04/20 13:56:23;;;;;;;8.20;6.77;;;;;;;;;;5046447;28;20244;-83
2023/04/20 13:58:51;;;;;;;9.80;7.30;;;;;;;;;;5059171;28;20278;-84
2023/04/20 14:01:18;;;;;;;8.10;6.83;;;;;;;;;;5065869;28;20201;-83
2023/04/20 14:03:44;;;;;;;6.57;5.37;;;;;;;;;;5066133;28;20197;-83
2023/04/20 14:06:13;;;;;;;10.07;7.77;;;;;;;;;;5052275;28;20260;-83
2023/04/20 14:08:39;;;;;;;5.33;4.80;;;;;;;;;;5065959;28;20209;-84
2023/04/20 14:11:06;;;;;;;6.33;5.40;;;;;;;;;;5072582;28;20202;-84
2023/04/20 14:13:33;;;;;;;6.60;5.90;;;;;;;;;;5058752;28;20209;-83
2023/04/20 14:16:00;;;;;;;5.67;5.17;;;;;;;;;;5059398;28;20679;-83
2023/04/20 14:18:26;;;;;;;11.57;8.13;;;;;;;;;;5057066;28;20190;-83
2023/04/20 14:20:53;;;;;;;12.07;9.27;;;;;;;;;;5039911;28;20230;-84
2023/04/20 14:23:21;;;;;;;7.33;6.40;;;;;;;;;;5038795;28;20204;-83
2023/04/20 14:25:48;;;;;;;6.10;5.10;;;;;;;;;;5059879;28;20229;-82
2023/04/20 14:28:15;;;;;;;5.83;5.30;;;;;;;;;;5071682;28;20275;-83
2023/04/20 14:30:43;;;;;;;9.23;7.17;;;;;;;;;;5064042;28;20213;-84
2023/04/20 14:33:10;;;;;;;6.50;5.70;;;;;;;;;;5051933;28;20264;-85
2023/04/20 14:35:37;;;;;;;5.03;4.57;;;;;;;;;;5052495;28;20207;-83
2023/04/20 14:38:04;;;;;;;3.60;3.40;;;;;;;;;;5052082;28;20253;-84
2023/04/20 14:40:32;;;;;;;4.27;3.93;;;;;;;;;;5051925;28;20234;-84
2023/04/20 14:42:59;;;;;;;6.00;3.30;;;;;;;;;;5056539;28;20209;-85